Time;durP1;ratioP1;P1;durP2;ratioP2;P2;SDS_P1;SDS_P2;PMS_P1;PMS_P2;Temp;Humidity;BMP_temperature;BMP_pressure;BME280_temperature;BME280_humidity;BME280_pressure;Samples;Min_cycle;Max_cycle;Signal;HPM_P1;HPM_P2
2022/11/10 00:02:18;;;;;;;0.70;0.30;;;10.30;87.70;;;;;;4955952;28;20428;-73
2022/11/10 00:04:43;;;;;;;0.52;0.40;;;10.30;87.70;;;;;;4974172;28;20034;-72
2022/11/10 00:07:09;;;;;;;2.03;0.45;;;10.30;87.80;;;;;;4956704;28;20419;-73
2022/11/10 00:09:35;;;;;;;0.60;0.30;;;10.30;87.80;;;;;;4974598;28;20113;-73
2022/11/10 00:12:00;;;;;;;1.75;0.60;;;10.30;87.70;;;;;;4974581;28;20467;-72
2022/11/10 00:17:03;;;;;;;1.58;0.47;;;10.30;87.80;;;;;;4973933;28;20042;-72
2022/11/10 00:19:30;;;;;;;1.33;0.40;;;10.20;87.80;;;;;;4956162;28;20038;-71
2022/11/10 00:21:56;;;;;;;1.38;0.40;;;10.30;87.90;;;;;;4973748;28;20046;-72
2022/11/10 00:24:22;;;;;;;0.68;0.40;;;10.30;88.00;;;;;;4974279;28;20037;-72
2022/11/10 00:26:48;;;;;;;1.30;0.52;;;10.30;88.00;;;;;;4973775;28;20510;-72
2022/11/10 00:29:14;;;;;;;1.17;0.43;;;10.20;88.00;;;;;;4974314;28;20039;-71
2022/11/10 00:31:40;;;;;;;0.40;0.40;;;10.30;88.10;;;;;;4955742;28;20050;-73
2022/11/10 00:34:09;;;;;;;0.40;0.40;;;10.20;88.10;;;;;;4973704;28;20059;-72
2022/11/10 00:36:35;;;;;;;0.40;0.40;;;10.20;88.10;;;;;;4974040;28;20509;-72
2022/11/10 00:39:01;;;;;;;1.85;0.60;;;10.30;88.10;;;;;;4973539;28;20047;-73
2022/11/10 00:41:27;;;;;;;1.35;0.50;;;10.20;88.10;;;;;;4974058;28;20031;-72
2022/11/10 00:43:53;;;;;;;1.83;0.55;;;10.20;88.00;;;;;;4956301;28;20059;-72
2022/11/10 00:46:18;;;;;;;0.75;0.40;;;10.20;88.10;;;;;;4973786;28;20504;-72
2022/11/10 00:48:44;;;;;;;1.58;0.45;;;10.20;88.10;;;;;;4973883;28;20199;-72
2022/11/10 00:51:24;;;;;;;1.73;0.50;;;10.20;88.10;;;;;;4956228;28;20185;-73
2022/11/10 00:53:50;;;;;;;0.80;0.73;;;10.20;88.10;;;;;;4955882;28;20054;-73
2022/11/10 00:56:15;;;;;;;0.57;0.43;;;10.20;88.10;;;;;;4973606;28;20615;-73
2022/11/10 00:58:41;;;;;;;1.00;0.30;;;10.20;88.10;;;;;;4973293;28;20051;-73
2022/11/10 01:01:08;;;;;;;0.47;0.40;;;10.20;88.10;;;;;;4973383;28;20395;-72
2022/11/10 01:03:34;;;;;;;1.00;0.57;;;10.20;88.20;;;;;;4973282;28;20043;-73
2022/11/10 01:06:05;;;;;;;1.50;0.65;;;10.20;88.20;;;;;;4972904;28;20039;-72
2022/11/10 01:08:31;;;;;;;0.68;0.40;;;10.00;88.10;;;;;;4973207;28;20042;-73
2022/11/10 01:11:06;;;;;;;0.68;0.40;;;10.20;88.30;;;;;;4940234;28;20097;-73
2022/11/10 01:13:32;;;;;;;0.63;0.40;;;10.10;88.30;;;;;;4955481;28;20329;-73
2022/11/10 01:16:08;;;;;;;3.05;0.50;;;10.20;88.40;;;;;;4955537;28;21963;-73
2022/11/10 01:18:35;;;;;;;1.55;0.50;;;10.10;88.40;;;;;;4956099;28;20105;-72
2022/11/10 01:21:01;;;;;;;1.02;0.52;;;10.20;88.50;;;;;;4955850;28;20077;-73
2022/11/10 01:23:34;;;;;;;0.50;0.40;;;10.00;88.50;;;;;;4973103;28;20064;-73
2022/11/10 01:26:04;;;;;;;0.82;0.47;;;10.10;88.60;;;;;;4972763;28;20125;-73
2022/11/10 01:28:31;;;;;;;0.30;0.30;;;10.00;88.60;;;;;;4972909;28;20034;-72
2022/11/10 01:31:00;;;;;;;0.63;0.63;;;10.10;88.60;;;;;;4971988;28;20042;-73
2022/11/10 01:33:26;;;;;;;1.35;0.50;;;10.00;88.60;;;;;;4973376;28;20039;-73
2022/11/10 01:35:52;;;;;;;0.73;0.38;;;10.20;88.70;;;;;;4955670;28;20070;-73
2022/11/10 01:38:17;;;;;;;0.85;0.40;;;10.10;88.70;;;;;;4972829;28;20124;-72
2022/11/10 01:40:44;;;;;;;0.60;0.45;;;10.00;88.60;;;;;;4973329;28;20035;-72
2022/11/10 01:43:10;;;;;;;1.63;0.75;;;10.10;88.70;;;;;;4972628;28;20392;-73
2022/11/10 01:46:04;;;;;;;0.30;0.30;;;10.10;88.70;;;;;;4972730;28;20031;-72
2022/11/10 01:48:38;;;;;;;0.40;0.40;;;10.10;88.70;;;;;;4955581;28;20085;-72
2022/11/10 01:51:14;;;;;;;1.00;0.45;;;10.10;88.70;;;;;;4973158;28;20038;-73
2022/11/10 01:53:43;;;;;;;1.55;0.45;;;10.00;88.70;;;;;;4955980;28;20035;-72
2022/11/10 01:56:11;;;;;;;2.42;0.40;;;10.00;88.70;;;;;;4955656;28;20098;-73
2022/11/10 01:58:42;;;;;;;0.30;0.30;;;10.00;88.70;;;;;;4972725;28;20471;-72
2022/11/10 02:01:08;;;;;;;0.30;0.30;;;10.00;88.80;;;;;;4972316;28;20038;-73
2022/11/10 02:03:46;;;;;;;0.98;0.38;;;10.00;88.80;;;;;;4972652;28;20041;-72
2022/11/10 02:06:14;;;;;;;0.60;0.30;;;10.00;88.90;;;;;;4954888;28;20495;-73
2022/11/10 02:08:41;;;;;;;0.43;0.32;;;10.00;88.80;;;;;;4972531;28;20047;-73
2022/11/10 02:11:07;;;;;;;1.00;0.52;;;10.00;88.80;;;;;;4939166;28;20446;-72
2022/11/10 02:13:33;;;;;;;1.17;0.50;;;9.90;88.70;;;;;;4972505;28;20031;-72
2022/11/10 02:15:59;;;;;;;0.77;0.30;;;10.00;88.90;;;;;;4972850;28;20062;-73
2022/11/10 02:18:25;;;;;;;0.98;0.40;;;10.00;88.90;;;;;;4972617;28;20051;-73
2022/11/10 02:20:50;;;;;;;0.95;0.50;;;10.00;88.90;;;;;;4972416;28;20037;-73
2022/11/10 02:23:47;;;;;;;0.88;0.50;;;10.00;88.90;;;;;;4972109;28;20441;-73
2022/11/10 02:26:16;;;;;;;1.10;0.38;;;10.00;89.00;;;;;;4957851;28;20050;-72
2022/11/10 02:28:42;;;;;;;0.40;0.40;;;10.00;89.00;;;;;;4972209;28;20063;-73
2022/11/10 02:31:08;;;;;;;0.85;0.43;;;10.00;89.00;;;;;;4971849;28;20431;-72
2022/11/10 02:33:35;;;;;;;1.63;0.40;;;10.00;89.00;;;;;;4954769;28;20035;-72
2022/11/10 02:36:00;;;;;;;1.25;0.30;;;10.00;89.10;;;;;;4954824;28;20031;-73
2022/11/10 02:38:26;;;;;;;0.73;0.47;;;10.10;89.10;;;;;;4972095;28;20256;-72
2022/11/10 02:40:52;;;;;;;0.55;0.28;;;10.00;89.20;;;;;;4955005;28;20035;-74
2022/11/10 02:43:18;;;;;;;0.85;0.57;;;10.00;89.10;;;;;;4973949;28;20031;-73
2022/11/10 02:45:44;;;;;;;0.30;0.22;;;10.00;89.10;;;;;;4975313;28;20030;-73
2022/11/10 02:48:12;;;;;;;1.02;0.43;;;10.00;89.10;;;;;;4975272;28;20089;-73
2022/11/10 02:50:38;;;;;;;2.20;0.40;;;10.00;89.10;;;;;;4957898;28;20055;-73
2022/11/10 02:53:04;;;;;;;1.50;0.60;;;10.10;89.20;;;;;;4975207;28;20039;-73
2022/11/10 02:55:30;;;;;;;0.68;0.52;;;10.00;89.20;;;;;;4957937;28;20114;-72
2022/11/10 02:57:56;;;;;;;0.45;0.40;;;10.00;89.20;;;;;;4941657;28;20479;-73
2022/11/10 03:00:21;;;;;;;0.90;0.55;;;10.00;89.20;;;;;;4974961;28;20031;-73
2022/11/10 03:02:47;;;;;;;0.22;0.22;;;10.00;89.20;;;;;;4975199;28;20050;-73
2022/11/10 03:05:16;;;;;;;0.40;0.40;;;10.00;89.30;;;;;;4975226;28;20041;-72
2022/11/10 03:07:42;;;;;;;0.43;0.40;;;9.90;89.20;;;;;;4974918;28;20035;-73
2022/11/10 03:10:08;;;;;;;0.93;0.57;;;10.00;89.30;;;;;;4956691;28;20032;-73
2022/11/10 03:12:33;;;;;;;0.40;0.40;;;9.90;89.30;;;;;;4957444;28;20035;-73
2022/11/10 03:14:59;;;;;;;2.85;0.70;;;9.90;89.30;;;;;;4975370;28;20046;-73
2022/11/10 03:17:24;;;;;;;1.02;0.50;;;9.90;89.40;;;;;;4975280;28;20042;-73
2022/11/10 03:19:50;;;;;;;1.55;0.47;;;9.90;89.40;;;;;;4974912;28;20175;-73
2022/11/10 03:22:16;;;;;;;1.20;0.40;;;9.90;89.40;;;;;;4957911;28;20046;-72
2022/11/10 03:24:41;;;;;;;1.15;0.40;;;9.90;89.40;;;;;;4974651;28;20047;-73
2022/11/10 03:27:07;;;;;;;0.28;0.20;;;9.90;89.50;;;;;;4957955;28;20159;-72
2022/11/10 03:29:33;;;;;;;0.65;0.30;;;9.90;89.50;;;;;;4957085;28;20035;-73
2022/11/10 03:31:58;;;;;;;0.20;0.20;;;9.90;89.50;;;;;;4957630;28;20042;-72
2022/11/10 03:34:24;;;;;;;0.57;0.30;;;9.80;89.50;;;;;;4974761;28;20407;-72
2022/11/10 03:36:50;;;;;;;1.52;0.52;;;9.90;89.60;;;;;;4975145;28;20057;-73
2022/11/10 03:39:15;;;;;;;0.38;0.35;;;9.90;89.60;;;;;;4957000;28;20050;-72
2022/11/10 03:41:41;;;;;;;0.73;0.35;;;9.90;89.60;;;;;;4956386;28;20061;-72
2022/11/10 03:44:07;;;;;;;0.70;0.43;;;9.80;89.60;;;;;;4940981;28;20531;-72
2022/11/10 03:46:33;;;;;;;0.52;0.40;;;9.80;90.10;;;;;;4940896;28;20043;-73
2022/11/10 03:48:58;;;;;;;1.30;0.60;;;9.80;89.70;;;;;;4974711;28;20042;-72
2022/11/10 03:51:24;;;;;;;0.60;0.40;;;9.80;89.70;;;;;;4974174;28;20483;-73
2022/11/10 03:53:50;;;;;;;0.45;0.40;;;9.70;89.70;;;;;;4953431;28;20055;-72
2022/11/10 03:56:15;;;;;;;1.05;0.30;;;9.80;89.70;;;;;;4974603;28;20141;-73
2022/11/10 03:58:41;;;;;;;0.47;0.30;;;9.80;89.80;;;;;;4956886;28;20051;-73
2022/11/10 04:01:07;;;;;;;1.77;0.43;;;9.80;89.80;;;;;;4974441;28;20034;-73
2022/11/10 04:03:33;;;;;;;0.40;0.20;;;9.80;89.80;;;;;;4974447;28;20034;-73
2022/11/10 04:16:44;;;;;;;0.73;0.38;;;9.80;89.90;;;;;;4974095;28;20118;-72
2022/11/10 04:19:09;;;;;;;0.22;0.22;;;9.80;89.90;;;;;;4956621;28;20206;-72
2022/11/10 04:21:35;;;;;;;0.98;0.32;;;9.70;89.90;;;;;;4974089;28;20035;-72
2022/11/10 04:24:01;;;;;;;1.20;0.50;;;9.70;90.00;;;;;;4974370;28;20031;-73
2022/11/10 04:26:28;;;;;;;0.60;0.40;;;9.70;90.00;;;;;;4974146;28;20046;-73
2022/11/10 04:28:57;;;;;;;0.47;0.40;;;9.70;90.00;;;;;;4974163;28;20038;-73
2022/11/10 04:31:25;;;;;;;0.30;0.30;;;9.70;90.00;;;;;;4955822;28;20042;-72
2022/11/10 04:33:52;;;;;;;2.45;0.38;;;9.70;90.10;;;;;;4973817;28;20050;-73
2022/11/10 04:36:21;;;;;;;0.32;0.30;;;9.70;90.00;;;;;;4939938;28;20039;-73
2022/11/10 04:38:47;;;;;;;1.00;0.50;;;9.70;90.00;;;;;;4973394;28;20047;-73
2022/11/10 04:41:13;;;;;;;0.50;0.28;;;9.70;90.00;;;;;;4974210;28;20057;-73
2022/11/10 04:43:40;;;;;;;0.40;0.40;;;9.70;90.00;;;;;;4955299;28;20141;-73
2022/11/10 04:46:14;;;;;;;0.43;0.40;;;9.70;90.00;;;;;;4974164;28;20093;-73
2022/11/10 04:48:40;;;;;;;0.20;0.20;;;9.70;90.00;;;;;;4956410;28;20063;-73
2022/11/10 04:51:06;;;;;;;1.17;0.50;;;9.80;90.00;;;;;;4973773;28;20078;-73
2022/11/10 04:53:33;;;;;;;0.60;0.40;;;9.80;90.00;;;;;;4970167;28;20065;-73
2022/11/10 04:55:58;;;;;;;1.30;0.40;;;9.80;90.00;;;;;;4973444;28;20042;-73
2022/11/10 04:58:24;;;;;;;1.98;0.50;;;9.80;89.90;;;;;;4954464;28;20480;-73
2022/11/10 05:00:50;;;;;;;0.50;0.40;;;9.70;89.80;;;;;;4956325;28;20081;-73
2022/11/10 05:03:15;;;;;;;0.50;0.50;;;9.80;89.90;;;;;;4973622;28;20061;-72
2022/11/10 05:05:41;;;;;;;0.85;0.50;;;9.80;89.90;;;;;;4973309;28;20049;-72
2022/11/10 05:08:08;;;;;;;0.93;0.50;;;9.70;89.80;;;;;;4956681;28;20049;-73
2022/11/10 05:10:35;;;;;;;0.95;0.50;;;9.80;89.90;;;;;;4973501;28;20487;-73
2022/11/10 05:13:03;;;;;;;0.40;0.30;;;9.80;90.00;;;;;;4973882;28;20118;-73
2022/11/10 05:15:30;;;;;;;0.70;0.40;;;9.80;90.00;;;;;;4956485;28;20039;-73
2022/11/10 05:17:56;;;;;;;0.68;0.40;;;9.80;90.00;;;;;;4973283;28;20117;-73
2022/11/10 05:20:23;;;;;;;0.45;0.35;;;9.70;90.00;;;;;;4973443;28;20391;-73
2022/11/10 05:25:31;;;;;;;0.82;0.40;;;9.70;90.00;;;;;;4970973;28;20399;-73
2022/11/10 05:27:57;;;;;;;0.32;0.30;;;9.70;90.00;;;;;;4973758;28;20046;-73
2022/11/10 05:30:22;;;;;;;1.27;0.50;;;9.70;90.00;;;;;;4955860;28;20077;-73
2022/11/10 05:32:48;;;;;;;0.40;0.40;;;9.80;90.00;;;;;;4973644;28;20058;-73
2022/11/10 05:35:14;;;;;;;1.42;0.50;;;9.70;90.00;;;;;;4955797;28;20055;-73
2022/11/10 05:37:40;;;;;;;0.90;0.50;;;9.70;90.00;;;;;;4973050;28;20051;-73
2022/11/10 05:40:06;;;;;;;1.30;0.45;;;9.70;90.00;;;;;;4973217;28;20027;-73
2022/11/10 05:42:32;;;;;;;0.30;0.30;;;9.70;90.10;;;;;;4973255;28;20038;-72
2022/11/10 05:44:57;;;;;;;2.05;0.60;;;9.70;90.10;;;;;;4939511;28;20031;-73
2022/11/10 05:47:23;;;;;;;0.98;0.30;;;9.80;90.10;;;;;;4973009;28;20035;-73
2022/11/10 05:49:48;;;;;;;0.88;0.40;;;9.70;90.10;;;;;;4972954;28;20030;-73
2022/11/10 05:52:14;;;;;;;0.90;0.30;;;9.70;90.10;;;;;;4973215;28;20035;-72
2022/11/10 05:54:40;;;;;;;1.70;0.52;;;9.70;90.10;;;;;;4973470;28;20491;-73
2022/11/10 05:57:06;;;;;;;0.77;0.43;;;9.70;90.10;;;;;;4954365;28;20444;-73
2022/11/10 05:59:31;;;;;;;1.35;0.57;;;9.60;90.10;;;;;;4972769;28;20086;-73
2022/11/10 06:01:57;;;;;;;0.30;0.30;;;9.60;90.10;;;;;;4972719;28;20064;-72
2022/11/10 06:04:23;;;;;;;0.90;0.40;;;9.70;90.10;;;;;;4938382;28;20046;-73
2022/11/10 06:06:48;;;;;;;0.85;0.40;;;9.60;90.10;;;;;;4972876;28;20027;-72
2022/11/10 06:09:14;;;;;;;0.65;0.38;;;9.60;90.10;;;;;;4972926;28;20118;-72
2022/11/10 06:11:40;;;;;;;0.43;0.35;;;9.70;90.20;;;;;;4954389;28;20035;-72
2022/11/10 06:14:05;;;;;;;1.58;0.50;;;9.60;90.20;;;;;;4972998;28;20129;-72
2022/11/10 06:16:31;;;;;;;1.50;0.50;;;9.60;90.10;;;;;;4972585;28;20039;-72
2022/11/10 06:18:57;;;;;;;0.95;0.50;;;9.60;90.20;;;;;;4975864;28;20629;-72
2022/11/10 06:21:22;;;;;;;1.15;0.40;;;9.60;90.20;;;;;;4975998;28;20391;-72
2022/11/10 06:23:48;;;;;;;0.52;0.40;;;9.60;90.20;;;;;;4975782;28;20133;-72
2022/11/10 06:26:14;;;;;;;0.80;0.43;;;9.60;90.20;;;;;;4976228;28;20090;-73
2022/11/10 06:28:39;;;;;;;1.75;0.50;;;9.50;90.20;;;;;;4941452;28;20495;-72
2022/11/10 06:31:05;;;;;;;1.95;0.60;;;9.60;90.20;;;;;;4976491;28;20109;-72
2022/11/10 06:33:31;;;;;;;1.50;0.60;;;9.60;90.20;;;;;;4958423;28;20039;-72
2022/11/10 06:35:56;;;;;;;1.25;0.40;;;9.60;90.20;;;;;;4958485;28;20627;-72
2022/11/10 06:38:22;;;;;;;3.33;0.63;;;9.50;90.20;;;;;;4956488;28;20051;-72
2022/11/10 06:40:48;;;;;;;1.05;0.40;;;9.60;90.20;;;;;;4976134;28;20149;-72
2022/11/10 06:43:13;;;;;;;0.43;0.43;;;9.60;90.20;;;;;;4958706;28;20065;-72
2022/11/10 06:45:39;;;;;;;1.83;0.60;;;9.60;90.30;;;;;;4958619;28;20101;-72
2022/11/10 06:48:10;;;;;;;0.65;0.32;;;9.60;90.30;;;;;;4942796;28;20537;-73
2022/11/10 06:50:35;;;;;;;0.57;0.40;;;9.60;90.30;;;;;;4958885;28;20480;-72
2022/11/10 06:53:02;;;;;;;0.95;0.50;;;9.50;90.20;;;;;;4975930;28;20045;-72
2022/11/10 06:55:28;;;;;;;0.40;0.30;;;9.50;90.20;;;;;;4975325;28;20038;-72
2022/11/10 06:57:54;;;;;;;1.17;0.43;;;9.60;90.30;;;;;;4942132;28;20039;-72
2022/11/10 07:00:21;;;;;;;0.70;0.32;;;9.60;90.20;;;;;;4975414;28;20035;-72
2022/11/10 07:02:46;;;;;;;0.40;0.40;;;9.60;90.20;;;;;;4958402;28;20126;-72
2022/11/10 07:05:14;;;;;;;0.85;0.40;;;9.60;90.20;;;;;;4940914;28;20130;-72
2022/11/10 07:07:40;;;;;;;1.17;0.40;;;9.60;90.20;;;;;;4975489;28;20160;-72
2022/11/10 07:10:06;;;;;;;0.55;0.47;;;9.60;90.20;;;;;;4975103;28;20030;-73
2022/11/10 07:12:31;;;;;;;0.52;0.35;;;9.60;90.30;;;;;;4975100;28;20122;-76
2022/11/10 07:14:57;;;;;;;0.30;0.30;;;9.60;90.30;;;;;;4975515;28;20565;-73
2022/11/10 07:17:24;;;;;;;2.10;0.40;;;9.60;90.30;;;;;;4975381;28;20053;-73
2022/11/10 07:19:50;;;;;;;0.80;0.30;;;9.60;90.30;;;;;;4975220;28;20136;-73
2022/11/10 07:22:15;;;;;;;0.70;0.38;;;9.60;90.20;;;;;;4974882;28;20578;-72
2022/11/10 07:24:41;;;;;;;0.70;0.45;;;9.60;90.20;;;;;;4975186;28;20054;-72
2022/11/10 07:27:07;;;;;;;0.40;0.40;;;9.70;90.30;;;;;;4958082;28;20059;-73
2022/11/10 07:29:33;;;;;;;1.25;0.50;;;9.70;90.30;;;;;;4957102;28;20045;-73
2022/11/10 07:31:58;;;;;;;1.55;0.50;;;9.70;90.20;;;;;;4975481;28;20049;-73
2022/11/10 07:34:24;;;;;;;1.73;0.40;;;9.70;90.20;;;;;;4974888;28;20039;-72
2022/11/10 07:36:53;;;;;;;2.42;0.45;;;9.70;90.20;;;;;;4940166;28;20455;-71
2022/11/10 07:39:19;;;;;;;0.52;0.47;;;9.70;90.20;;;;;;4942154;28;20038;-72
2022/11/10 07:41:44;;;;;;;1.92;0.50;;;9.70;90.20;;;;;;4975387;28;20118;-73
2022/11/10 07:44:10;;;;;;;0.40;0.40;;;9.80;90.20;;;;;;4974827;28;20039;-72
2022/11/10 07:46:35;;;;;;;0.85;0.40;;;9.70;90.20;;;;;;4975060;28;20038;-72
2022/11/10 07:49:01;;;;;;;0.60;0.50;;;9.80;90.20;;;;;;4975307;28;20035;-73
2022/11/10 07:51:26;;;;;;;1.38;0.60;;;9.80;90.20;;;;;;4957595;28;20399;-73
2022/11/10 07:53:52;;;;;;;1.33;0.50;;;9.80;90.10;;;;;;4975410;28;20058;-73
2022/11/10 07:56:18;;;;;;;2.00;0.50;;;9.90;90.10;;;;;;4975245;28;20074;-74
2022/11/10 07:58:45;;;;;;;0.55;0.50;;;9.90;90.10;;;;;;4957464;28;20050;-73
2022/11/10 08:01:11;;;;;;;0.70;0.40;;;10.00;90.10;;;;;;4956889;28;20487;-74
2022/11/10 08:03:39;;;;;;;0.70;0.40;;;10.00;90.10;;;;;;4957120;28;20031;-73
2022/11/10 08:06:05;;;;;;;1.42;0.52;;;9.90;90.10;;;;;;4957321;28;20038;-73
2022/11/10 08:08:31;;;;;;;0.55;0.30;;;10.00;90.00;;;;;;4925019;28;20031;-73
2022/11/10 08:10:59;;;;;;;1.13;0.50;;;10.00;90.00;;;;;;4974541;28;20031;-73
2022/11/10 08:13:27;;;;;;;1.33;0.63;;;10.00;90.00;;;;;;4940404;28;20047;-74
2022/11/10 08:16:00;;;;;;;0.65;0.40;;;10.10;90.00;;;;;;4941315;28;20062;-75
2022/11/10 08:40:48;;;;;;;1.92;0.60;;;10.50;89.50;;;;;;4708115;30;20087;-73
2022/11/10 08:44:16;;;;;;;0.63;0.55;;;10.50;89.30;;;;;;4693717;30;20057;-74
2022/11/10 08:50:29;;;;;;;1.00;0.60;;;10.70;89.30;;;;;;4638677;30;20043;-73
2022/11/10 08:53:19;;;;;;;0.93;0.60;;;10.60;89.00;;;;;;4614918;30;20167;-73
2022/11/10 08:55:52;;;;;;;1.33;0.50;;;10.80;89.80;;;;;;4643689;30;20282;-74
2022/11/10 08:58:24;;;;;;;1.35;0.60;;;10.80;89.10;;;;;;4659196;30;20073;-74
2022/11/10 09:01:15;;;;;;;1.20;0.55;;;10.90;89.00;;;;;;4644746;30;20039;-74
2022/11/10 09:03:56;;;;;;;1.55;0.70;;;11.00;88.90;;;;;;4644229;30;20047;-73
2022/11/10 09:07:00;;;;;;;0.88;0.55;;;11.00;88.80;;;;;;4616885;30;20141;-74
2022/11/10 09:13:22;;;;;;;2.20;0.60;;;11.20;88.80;;;;;;4657574;30;20113;-73
2022/11/10 09:19:41;;;;;;;1.80;0.60;;;11.20;88.70;;;;;;4660310;30;20049;-73
2022/11/10 09:22:25;;;;;;;1.08;0.65;;;11.20;88.60;;;;;;4696061;30;20136;-74
2022/11/10 09:25:50;;;;;;;1.02;0.60;;;11.30;88.70;;;;;;4678068;30;20061;-74
2022/11/10 09:28:59;;;;;;;2.55;0.70;;;11.30;88.70;;;;;;4708871;30;20524;-73
2022/11/10 09:31:36;;;;;;;2.42;0.70;;;11.30;88.60;;;;;;4713131;30;20056;-73
2022/11/10 09:34:03;;;;;;;1.10;0.70;;;11.50;88.60;;;;;;4691270;30;20045;-72
2022/11/10 09:36:29;;;;;;;1.05;0.55;;;11.50;88.50;;;;;;4680659;30;20116;-74
2022/11/10 09:38:55;;;;;;;0.77;0.50;;;11.60;88.50;;;;;;4696583;30;20463;-72
2022/11/10 09:41:20;;;;;;;1.52;0.68;;;11.70;88.40;;;;;;4694816;30;20555;-73
2022/11/10 09:44:03;;;;;;;2.42;0.98;;;11.70;88.30;;;;;;4695790;30;20060;-73
2022/11/10 09:46:44;;;;;;;2.15;0.80;;;11.80;88.30;;;;;;4691734;30;20533;-73
2022/11/10 09:49:48;;;;;;;2.00;0.65;;;11.80;88.20;;;;;;4754416;29;20433;-74
2022/11/10 09:52:18;;;;;;;1.30;0.68;;;11.80;88.10;;;;;;4821262;29;20132;-73
2022/11/10 09:54:55;;;;;;;2.88;0.70;;;11.90;88.00;;;;;;4823423;29;20126;-74
2022/11/10 09:57:24;;;;;;;1.58;0.80;;;11.90;87.90;;;;;;4823887;29;21469;-72
2022/11/10 09:59:50;;;;;;;2.42;0.85;;;12.00;87.90;;;;;;4915285;29;20040;-73
2022/11/10 10:02:29;;;;;;;1.63;0.55;;;12.10;87.90;;;;;;4900657;29;20040;-73
2022/11/10 10:12:31;;;;;;;3.55;1.00;;;12.30;87.90;;;;;;4893476;29;20083;-73
2022/11/10 10:15:22;;;;;;;2.78;0.88;;;12.30;87.60;;;;;;4880875;29;20128;-73
2022/11/10 10:18:13;;;;;;;1.75;0.70;;;12.40;87.60;;;;;;4893855;29;20497;-72
2022/11/10 10:21:27;;;;;;;1.30;0.70;;;12.50;87.60;;;;;;4879120;29;20068;-72
2022/11/10 10:24:08;;;;;;;1.67;0.70;;;12.50;87.50;;;;;;4877426;29;20140;-72
2022/11/10 10:33:59;;;;;;;1.42;0.40;;;12.60;87.40;;;;;;4781446;29;20085;-73
2022/11/10 10:51:12;;;;;;;1.02;0.50;;;12.80;87.00;;;;;;4718386;30;20079;-72
2022/11/10 11:02:05;;;;;;;4.63;0.70;;;13.10;86.80;;;;;;4749774;30;20610;-73
2022/11/10 11:38:11;;;;;;;0.85;0.35;;;13.70;85.60;;;;;;4746113;30;20105;-73
2022/11/10 11:59:24;;;;;;;2.28;0.80;;;14.30;84.90;;;;;;4644622;30;20090;-73
2022/11/10 12:02:27;;;;;;;0.98;0.50;;;14.40;84.70;;;;;;4644203;30;20057;-73
2022/11/10 12:16:25;;;;;;;1.52;0.47;;;15.00;83.90;;;;;;4644392;30;20483;-73
2022/11/10 12:26:30;;;;;;;0.98;0.47;;;15.10;83.60;;;;;;4573766;31;20081;-72
2022/11/10 12:29:21;;;;;;;2.05;0.70;;;15.10;83.60;;;;;;4587332;31;20556;-72
2022/11/10 12:31:53;;;;;;;1.60;0.70;;;15.20;83.40;;;;;;4596134;31;20048;-72
2022/11/10 12:34:55;;;;;;;1.40;0.57;;;15.20;83.50;;;;;;4602557;31;20067;-73
2022/11/10 12:41:31;;;;;;;1.43;0.53;;;15.30;83.40;;;;;;4728725;30;20533;-73
2022/11/10 12:44:07;;;;;;;2.50;0.90;;;15.40;83.20;;;;;;4701525;30;20318;-71
2022/11/10 12:46:33;;;;;;;1.90;0.70;;;15.40;83.00;;;;;;4711149;30;20032;-72
2022/11/10 12:49:29;;;;;;;1.90;0.63;;;15.30;83.20;;;;;;4756517;29;20043;-73
2022/11/10 12:52:22;;;;;;;1.25;0.60;;;15.20;83.30;;;;;;4806209;29;20050;-72
2022/11/10 13:02:23;;;;;;;1.20;0.67;;;15.00;83.80;;;;;;4738008;30;20044;-73
2022/11/10 13:05:28;;;;;;;2.70;0.73;;;15.00;83.90;;;;;;4757943;29;20140;-72
2022/11/10 13:12:17;;;;;;;2.30;0.60;;;14.90;84.00;;;;;;4787925;29;20065;-72
2022/11/10 13:14:45;;;;;;;1.83;0.50;;;15.00;84.20;;;;;;4783447;29;20043;-72
2022/11/10 13:17:45;;;;;;;0.95;0.50;;;15.00;84.20;;;;;;4783931;29;20050;-72
2022/11/10 13:20:47;;;;;;;1.77;0.50;;;15.10;83.90;;;;;;4787862;29;20054;-73
2022/11/10 13:31:22;;;;;;;2.05;0.90;;;15.30;82.90;;;;;;4731201;30;20495;-73
2022/11/10 13:34:13;;;;;;;2.55;0.70;;;15.40;83.10;;;;;;4714924;30;20059;-72
2022/11/10 13:36:45;;;;;;;1.33;0.67;;;15.20;83.00;;;;;;4729940;30;20068;-72
2022/11/10 13:39:35;;;;;;;3.30;0.70;;;15.10;83.00;;;;;;4712148;30;20049;-72
2022/11/10 13:42:19;;;;;;;0.68;0.43;;;15.20;83.10;;;;;;4712070;30;20053;-72
2022/11/10 13:44:46;;;;;;;1.95;0.73;;;15.10;83.20;;;;;;4699089;30;20049;-72
2022/11/10 13:47:39;;;;;;;1.65;0.68;;;15.10;83.20;;;;;;4718073;30;20056;-71
2022/11/10 13:50:29;;;;;;;0.98;0.60;;;15.10;83.30;;;;;;4730789;30;20059;-72
2022/11/10 13:53:22;;;;;;;1.65;0.65;;;15.00;83.40;;;;;;4730311;30;20051;-72
2022/11/10 13:56:09;;;;;;;0.65;0.57;;;14.90;83.40;;;;;;4748144;30;20048;-72
2022/11/10 13:58:45;;;;;;;1.70;0.70;;;15.00;83.50;;;;;;4749162;30;20555;-72
2022/11/10 14:01:29;;;;;;;1.65;0.57;;;14.90;83.50;;;;;;4752678;30;20059;-72
2022/11/10 14:04:04;;;;;;;1.23;0.50;;;15.00;83.50;;;;;;4743261;29;20171;-72
2022/11/10 14:07:00;;;;;;;1.33;0.52;;;14.90;83.40;;;;;;4784782;29;20095;-74
2022/11/10 14:09:32;;;;;;;0.93;0.43;;;14.90;83.50;;;;;;4778745;29;20047;-73
2022/11/10 14:12:05;;;;;;;0.35;0.30;;;14.90;83.50;;;;;;4751277;30;20060;-73
2022/11/10 14:14:46;;;;;;;0.50;0.45;;;14.80;83.50;;;;;;4750918;30;20055;-72
2022/11/10 14:17:20;;;;;;;0.73;0.43;;;14.90;83.50;;;;;;4750993;30;20051;-73
2022/11/10 14:19:48;;;;;;;0.47;0.40;;;14.80;83.50;;;;;;4776527;29;20066;-73
2022/11/10 14:22:35;;;;;;;1.02;0.52;;;14.70;83.40;;;;;;4771729;29;20075;-73
2022/11/10 14:25:23;;;;;;;0.82;0.40;;;14.80;83.50;;;;;;4771917;29;20047;-72
2022/11/10 14:27:50;;;;;;;0.70;0.50;;;14.80;83.50;;;;;;4818383;29;20041;-72
2022/11/10 14:30:26;;;;;;;2.15;0.70;;;14.80;83.50;;;;;;4846746;29;20045;-73
2022/11/10 14:33:08;;;;;;;1.65;0.60;;;14.70;83.40;;;;;;4861174;29;20060;-73
2022/11/10 14:35:54;;;;;;;2.08;0.65;;;14.70;83.40;;;;;;4862598;29;20622;-73
2022/11/10 14:38:22;;;;;;;0.82;0.32;;;14.70;83.40;;;;;;4894008;28;20052;-73
2022/11/10 14:40:48;;;;;;;1.33;0.75;;;14.70;83.40;;;;;;4975711;28;20042;-73
2022/11/10 14:43:34;;;;;;;1.67;0.50;;;14.70;83.40;;;;;;4958366;28;20057;-74
2022/11/10 14:46:02;;;;;;;0.55;0.40;;;14.60;83.40;;;;;;4976162;28;20039;-74
2022/11/10 14:48:33;;;;;;;0.77;0.50;;;14.60;83.40;;;;;;4975699;28;20054;-73
2022/11/10 14:51:03;;;;;;;1.15;0.40;;;14.60;83.40;;;;;;4958780;28;20074;-73
2022/11/10 14:53:34;;;;;;;1.30;0.45;;;14.50;83.40;;;;;;4958666;28;20042;-73
2022/11/10 14:56:03;;;;;;;1.38;0.50;;;14.60;83.40;;;;;;4957414;28;20047;-73
2022/11/10 14:58:34;;;;;;;0.30;0.30;;;14.60;83.40;;;;;;4975784;28;20049;-73
2022/11/10 15:01:02;;;;;;;2.53;0.45;;;14.50;83.30;;;;;;4975920;28;20153;-73
2022/11/10 15:03:35;;;;;;;0.80;0.40;;;14.60;83.40;;;;;;4976123;28;20415;-73
2022/11/10 15:06:03;;;;;;;0.77;0.40;;;14.50;83.30;;;;;;4975549;28;20074;-73
2022/11/10 15:08:29;;;;;;;1.08;0.45;;;14.50;83.30;;;;;;4976045;28;20121;-73
2022/11/10 15:10:55;;;;;;;0.93;0.40;;;14.40;83.30;;;;;;4975858;28;20481;-73
2022/11/10 15:13:36;;;;;;;0.73;0.47;;;14.40;83.30;;;;;;4975566;28;20062;-73
2022/11/10 15:16:24;;;;;;;1.08;0.60;;;14.40;83.40;;;;;;4975658;28;20043;-73
2022/11/10 15:18:52;;;;;;;0.57;0.32;;;14.30;83.40;;;;;;4975322;28;20086;-73
2022/11/10 15:21:20;;;;;;;1.42;0.30;;;14.30;83.40;;;;;;4958493;28;20093;-73
2022/11/10 15:23:52;;;;;;;2.15;0.50;;;14.20;83.40;;;;;;4975565;28;20121;-73
2022/11/10 15:26:22;;;;;;;0.30;0.30;;;14.30;83.50;;;;;;4957426;28;20399;-73
2022/11/10 15:28:48;;;;;;;1.02;0.50;;;14.20;83.50;;;;;;4958184;28;20046;-73
2022/11/10 15:31:25;;;;;;;0.57;0.30;;;14.20;83.50;;;;;;4975024;28;20447;-73
2022/11/10 15:33:54;;;;;;;0.55;0.47;;;14.10;83.50;;;;;;4975345;28;20054;-73
2022/11/10 15:36:31;;;;;;;0.90;0.40;;;14.10;83.50;;;;;;4975027;28;20078;-73
2022/11/10 15:39:22;;;;;;;1.65;0.30;;;14.10;83.50;;;;;;4957801;28;20039;-73
2022/11/10 15:41:55;;;;;;;0.40;0.30;;;14.00;83.50;;;;;;4957246;28;20065;-73
2022/11/10 15:44:23;;;;;;;0.80;0.35;;;13.90;83.50;;;;;;4974740;28;20479;-74
2022/11/10 15:46:52;;;;;;;0.52;0.40;;;13.90;83.50;;;;;;4957842;28;20097;-73
2022/11/10 15:49:31;;;;;;;0.40;0.30;;;13.90;83.50;;;;;;4956814;28;20073;-73
2022/11/10 15:52:00;;;;;;;1.15;0.40;;;13.80;83.50;;;;;;4974157;28;20070;-74
2022/11/10 15:54:29;;;;;;;1.60;0.45;;;13.80;83.60;;;;;;4975106;28;20050;-73
2022/11/10 15:56:55;;;;;;;0.55;0.40;;;13.80;83.60;;;;;;4974907;28;20490;-73
2022/11/10 15:59:21;;;;;;;0.20;0.20;;;13.70;83.60;;;;;;4974968;28;20117;-73
2022/11/10 16:01:47;;;;;;;0.60;0.40;;;13.60;83.70;;;;;;4975070;28;20035;-73
2022/11/10 16:04:13;;;;;;;0.40;0.40;;;13.60;83.80;;;;;;4974989;28;20034;-73
2022/11/10 16:06:39;;;;;;;0.13;0.13;;;13.60;83.90;;;;;;4974560;28;20503;-73
2022/11/10 16:09:05;;;;;;;0.30;0.30;;;13.50;83.90;;;;;;4955300;28;20101;-74
2022/11/10 16:11:34;;;;;;;0.30;0.30;;;13.50;84.10;;;;;;4974550;28;20043;-73
2022/11/10 16:14:02;;;;;;;0.32;0.32;;;13.40;84.10;;;;;;4957821;28;20121;-73